createdAt,value
2022-09-01T00:00:11.216Z,65.29
2022-09-01T00:03:14.060Z,67.48
2022-09-01T00:06:22.530Z,68.30
2022-09-01T00:09:25.447Z,68.31
2022-09-01T00:12:29.925Z,69.95
2022-09-01T00:15:34.995Z,70.45
2022-09-01T00:18:37.580Z,70.47
2022-09-01T00:21:43.549Z,71.55
2022-09-01T00:24:46.467Z,72.08
2022-09-01T00:27:49.784Z,72.34
2022-09-01T00:30:53.536Z,74.29
2022-09-01T00:33:58.073Z,74.57
2022-09-01T00:37:00.693Z,75.79
2022-09-01T00:40:04.521Z,76.55
2022-09-01T00:43:50.411Z,78.30
2022-09-01T00:46:55.980Z,79.31
2022-09-01T00:49:58.957Z,80.27
2022-09-01T00:53:02.074Z,81.20
2022-09-01T00:56:05.493Z,81.98
2022-09-01T00:59:09.433Z,80.99
2022-09-01T01:02:12.046Z,81.44
2022-09-01T01:05:15.697Z,81.35
2022-09-01T01:08:19.877Z,82.69
2022-09-01T01:11:23.668Z,81.67
2022-09-01T01:14:29.695Z,81.67
2022-09-01T01:17:32.993Z,81.85
2022-09-01T01:20:54.739Z,79.32
2022-09-01T01:24:20.512Z,78.75
2022-09-01T01:27:23.200Z,77.99
2022-09-01T01:30:26.719Z,78.92
2022-09-01T01:33:42.748Z,79.15
2022-09-01T01:36:49.088Z,79.08
2022-09-01T01:39:52.395Z,80.66
2022-09-01T01:42:55.897Z,80.17
2022-09-01T01:46:02.825Z,80.59
2022-09-01T01:49:07.039Z,80.37
2022-09-01T01:52:17.477Z,80.28
2022-09-01T01:55:24.928Z,81.41
2022-09-01T01:58:29.050Z,81.53
2022-09-01T02:01:32.231Z,82.02
2022-09-01T02:04:35.597Z,80.19
2022-09-01T02:07:43.641Z,80.91
2022-09-01T02:10:48.959Z,81.35
2022-09-01T02:13:57.469Z,80.57
2022-09-01T02:17:02.019Z,81.54
2022-09-01T02:20:04.941Z,81.83
2022-09-01T02:23:11.667Z,81.77
2022-09-01T02:26:17.575Z,81.02
2022-09-01T02:29:22.795Z,81.17
2022-09-01T02:32:25.487Z,79.98
2022-09-01T02:35:38.004Z,80.83
2022-09-01T02:38:46.625Z,81.08
2022-09-01T02:41:50.232Z,82.57
2022-09-01T02:44:55.266Z,82.80
2022-09-01T02:47:59.013Z,83.33
2022-09-01T02:51:03.833Z,83.64
2022-09-01T02:54:07.482Z,84.32
2022-09-01T02:57:10.153Z,82.93
2022-09-01T03:00:22.881Z,82.24
2022-09-01T03:03:26.052Z,81.43
2022-09-01T03:06:32.540Z,80.85
2022-09-01T03:09:35.479Z,80.85
2022-09-01T03:12:38.447Z,80.84
2022-09-01T03:15:41.686Z,80.43
2022-09-01T03:18:44.835Z,80.31
2022-09-01T03:21:48.753Z,81.68
2022-09-01T03:24:51.704Z,82.07
2022-09-01T03:27:54.236Z,81.32
2022-09-01T03:30:58.131Z,81.03
2022-09-01T03:34:03.391Z,82.03
2022-09-01T03:37:08.086Z,81.96
2022-09-01T03:40:12.747Z,82.61
2022-09-01T03:43:16.966Z,82.88
2022-09-01T03:46:21.627Z,83.12
2022-09-01T03:49:28.776Z,84.62
2022-09-01T03:52:31.397Z,83.44
2022-09-01T03:55:35.835Z,83.09
2022-09-01T03:58:39.165Z,81.55
2022-09-01T04:01:43.776Z,84.22
2022-09-01T04:04:46.912Z,84.38
2022-09-01T04:07:50.329Z,84.82
2022-09-01T04:10:54.779Z,85.50
2022-09-01T04:13:57.807Z,84.11
2022-09-01T04:17:19.415Z,85.46
2022-09-01T04:20:23.501Z,85.30
2022-09-01T04:23:30.170Z,85.22
2022-09-01T04:26:33.922Z,84.25
2022-09-01T04:29:37.158Z,85.20
2022-09-01T04:32:41.673Z,85.69
2022-09-01T04:35:44.465Z,85.19
2022-09-01T04:38:49.341Z,85.36
2022-09-01T04:41:52.700Z,85.67
2022-09-01T04:44:56.702Z,84.58
2022-09-01T04:48:00.767Z,84.83
2022-09-01T04:51:10.420Z,85.14
2022-09-01T04:54:16.259Z,84.83
2022-09-01T04:57:27.373Z,85.66
2022-09-01T05:00:32.329Z,86.02
2022-09-01T05:03:35.919Z,86.21
2022-09-01T05:06:42.455Z,87.06
2022-09-01T05:09:45.585Z,87.05
2022-09-01T05:12:49.612Z,87.26
2022-09-01T05:16:13.106Z,85.88
2022-09-01T05:19:20.953Z,86.20
2022-09-01T05:22:23.946Z,86.53
2022-09-01T05:25:27.441Z,86.88
2022-09-01T05:28:30.720Z,87.28
2022-09-01T05:31:35.004Z,87.65
2022-09-01T05:34:39.807Z,87.56
2022-09-01T05:37:43.592Z,87.02
2022-09-01T05:40:55.982Z,87.62
2022-09-01T05:44:00.858Z,88.19
2022-09-01T05:47:05.502Z,87.95
2022-09-01T05:50:14.213Z,86.95
2022-09-01T05:53:17.588Z,88.01
2022-09-01T05:56:24.014Z,88.36
2022-09-01T05:59:27.774Z,87.74
2022-09-01T06:02:31.147Z,88.33
2022-09-01T06:05:36.708Z,88.16
2022-09-01T06:08:46.797Z,87.51
2022-09-01T06:11:50.112Z,88.49
2022-09-01T06:14:54.486Z,87.81
2022-09-01T06:17:58.752Z,87.13
2022-09-01T06:21:04.397Z,88.49
2022-09-01T06:24:07.825Z,88.79
2022-09-01T06:27:10.596Z,88.49
2022-09-01T06:30:15.381Z,88.11
2022-09-01T06:33:19.455Z,87.58
2022-09-01T06:36:23.838Z,87.02
2022-09-01T06:39:26.628Z,87.85
2022-09-01T06:42:29.628Z,88.22
2022-09-01T06:45:32.788Z,87.70
2022-09-01T06:48:40.145Z,88.77
2022-09-01T06:51:42.985Z,86.65
2022-09-01T06:54:46.241Z,85.47
2022-09-01T06:58:09.244Z,86.68
2022-09-01T07:01:21.284Z,87.19
2022-09-01T07:04:25.266Z,87.44
2022-09-01T07:14:23.090Z,86.67
2022-09-01T07:17:26.514Z,87.30
2022-09-01T07:20:29.783Z,88.69
2022-09-01T07:23:46.245Z,86.30
2022-09-01T07:26:50.824Z,86.26
2022-09-01T07:29:56.251Z,87.02
2022-09-01T07:33:41.657Z,87.93
2022-09-01T07:42:59.097Z,87.33
2022-09-01T07:42:59.128Z,86.90
2022-09-01T07:43:22.241Z,87.66
2022-09-01T07:46:43.899Z,88.51
2022-09-01T07:50:14.278Z,86.78
2022-09-01T07:53:11.168Z,86.27
2022-09-01T07:56:15.595Z,86.14
2022-09-01T07:59:20.891Z,86.35
2022-09-01T08:02:24.602Z,87.20
2022-09-01T08:05:28.953Z,86.30
2022-09-01T08:08:32.052Z,87.21
2022-09-01T08:11:58.606Z,88.45
2022-09-01T08:15:38.000Z,86.37
2022-09-01T08:18:21.887Z,87.26
2022-09-01T08:21:25.558Z,87.12
2022-09-01T08:24:31.026Z,85.72
2022-09-01T08:27:36.552Z,83.70
2022-09-01T08:30:41.579Z,84.93
2022-09-01T08:33:54.581Z,82.82
2022-09-01T08:36:57.480Z,85.22
2022-09-01T08:40:00.191Z,84.78
2022-09-01T08:43:15.661Z,83.71
2022-09-01T08:46:32.426Z,85.40
2022-09-01T08:49:44.364Z,84.24
2022-09-01T08:53:10.574Z,81.46
2022-09-01T08:56:15.611Z,82.90
2022-09-01T08:59:18.525Z,79.19
2022-09-01T09:02:49.475Z,80.59
2022-09-01T09:06:04.267Z,84.01
2022-09-01T09:09:08.968Z,83.16
2022-09-01T09:12:26.168Z,83.12
2022-09-01T09:15:47.304Z,82.50
2022-09-01T09:18:56.500Z,81.53
2022-09-01T09:22:02.041Z,81.60
2022-09-01T09:25:10.045Z,81.04
2022-09-01T09:28:13.013Z,76.94
2022-09-01T09:31:50.017Z,80.13
2022-09-01T09:34:53.367Z,78.40
2022-09-01T09:37:56.405Z,79.92
2022-09-01T09:41:18.728Z,81.34
2022-09-01T09:44:29.475Z,79.94
2022-09-01T09:47:45.068Z,78.06
2022-09-01T09:50:47.923Z,79.47
2022-09-01T09:53:52.941Z,74.32
2022-09-01T09:57:14.622Z,79.81
2022-09-01T10:00:34.638Z,77.50
2022-09-01T10:03:42.350Z,76.38
2022-09-01T10:06:47.745Z,74.41
2022-09-01T10:09:51.222Z,71.41
2022-09-01T10:12:54.344Z,72.33
2022-09-01T10:16:00.511Z,72.00
2022-09-01T10:19:07.168Z,74.23
2022-09-01T10:22:16.032Z,71.50
2022-09-01T10:25:32.518Z,71.29
2022-09-01T10:29:06.250Z,70.67
2022-09-01T10:32:31.814Z,66.83
2022-09-01T10:35:40.665Z,64.65
2022-09-01T10:38:50.330Z,66.55
2022-09-01T10:42:07.669Z,63.20
2022-09-01T10:45:31.011Z,62.76
2022-09-01T10:48:47.930Z,62.83
2022-09-01T10:51:56.537Z,62.35
2022-09-01T10:55:01.407Z,60.48
2022-09-01T11:02:22.247Z,59.83
2022-09-01T11:05:18.127Z,58.13
2022-09-01T11:08:27.390Z,54.39
2022-09-01T11:11:30.621Z,54.23
2022-09-01T11:14:35.995Z,55.39
2022-09-01T11:17:59.774Z,55.48
2022-09-01T11:21:31.185Z,54.20
2022-09-01T11:24:40.383Z,53.85
2022-09-01T11:27:49.073Z,52.82
2022-09-01T11:30:55.920Z,51.80
2022-09-01T11:34:04.823Z,51.21
2022-09-01T11:37:12.727Z,51.75
2022-09-01T11:40:22.033Z,49.87
2022-09-01T11:43:26.192Z,49.57
2022-09-01T11:46:35.327Z,48.14
2022-09-01T11:49:46.270Z,46.55
2022-09-01T11:53:04.047Z,49.35
2022-09-01T11:56:20.370Z,48.01
2022-09-01T11:59:35.011Z,48.13
2022-09-01T12:02:44.865Z,46.13
2022-09-01T12:05:50.871Z,45.46
2022-09-01T12:08:59.078Z,43.88
2022-09-01T12:12:05.886Z,45.21
2022-09-01T12:15:18.854Z,42.97
2022-09-01T12:18:25.239Z,42.43
2022-09-01T12:21:29.204Z,41.96
2022-09-01T12:24:35.398Z,41.32
2022-09-01T12:27:38.055Z,40.51
2022-09-01T12:30:43.652Z,41.47
2022-09-01T12:33:46.853Z,41.32
2022-09-01T12:37:05.780Z,40.14
2022-09-01T12:40:22.672Z,40.45
2022-09-01T12:43:33.366Z,40.89
2022-09-01T12:46:44.840Z,41.21
2022-09-01T12:49:52.076Z,41.17
2022-09-01T12:52:58.348Z,41.67
2022-09-01T12:56:20.647Z,40.50
2022-09-01T12:59:35.832Z,40.08
2022-09-01T13:02:43.077Z,40.62
2022-09-01T13:05:51.064Z,40.68
2022-09-01T13:08:55.309Z,40.09
2022-09-01T13:12:31.839Z,40.65
2022-09-01T13:15:36.269Z,39.25
2022-09-01T13:22:03.042Z,38.49
2022-09-01T13:25:06.060Z,38.82
2022-09-01T13:28:08.973Z,37.67
2022-09-01T13:34:35.613Z,37.79
2022-09-01T13:37:38.368Z,36.33
2022-09-01T13:40:42.181Z,38.64
2022-09-01T13:47:00.562Z,36.37
2022-09-01T13:50:08.886Z,38.16
2022-09-01T13:53:14.931Z,38.41
2022-09-01T13:56:17.436Z,39.23
2022-09-01T13:59:20.294Z,36.21
2022-09-01T14:02:22.794Z,36.23
2022-09-01T14:05:29.360Z,35.60
2022-09-01T14:08:33.352Z,35.96
2022-09-01T14:11:36.581Z,34.79
2022-09-01T14:18:02.850Z,35.84
2022-09-01T14:21:06.203Z,34.97
2022-09-01T14:24:09.164Z,35.30
2022-09-01T14:27:11.817Z,35.39
2022-09-01T14:30:19.483Z,34.47
2022-09-01T14:33:24.432Z,35.80
2022-09-01T14:36:27.371Z,35.23
2022-09-01T14:39:30.800Z,35.91
2022-09-01T14:42:33.800Z,35.74
2022-09-01T14:45:37.833Z,35.18
2022-09-01T14:48:41.153Z,35.66
2022-09-01T14:55:07.514Z,36.91
2022-09-01T14:58:10.323Z,35.00
2022-09-01T15:01:33.253Z,37.16
2022-09-01T15:04:36.671Z,35.81
2022-09-01T15:07:40.655Z,37.24
2022-09-01T15:10:43.961Z,36.39
2022-09-01T15:13:52.132Z,35.41
2022-09-01T15:16:54.788Z,35.62
2022-09-01T15:20:17.830Z,35.51
2022-09-01T15:23:26.208Z,35.69
2022-09-01T15:26:29.455Z,36.25
2022-09-01T15:29:34.172Z,35.70
2022-09-01T15:32:37.160Z,35.86
2022-09-01T15:35:39.823Z,36.39
2022-09-01T15:38:42.881Z,35.95
2022-09-01T15:41:45.773Z,36.30
2022-09-01T15:44:48.842Z,36.21
2022-09-01T15:47:51.470Z,35.13
2022-09-01T15:50:59.058Z,36.14
2022-09-01T15:54:05.404Z,35.84
2022-09-01T15:57:09.024Z,34.99
2022-09-01T16:00:12.390Z,35.80
2022-09-01T16:03:14.713Z,35.47
2022-09-01T16:06:17.570Z,35.84
2022-09-01T16:09:22.975Z,35.81
2022-09-01T16:12:26.620Z,36.35
2022-09-01T16:15:29.783Z,35.83
2022-09-01T16:18:42.380Z,34.09
2022-09-01T16:22:12.787Z,34.66
2022-09-01T16:25:23.543Z,34.40
2022-09-01T16:28:30.470Z,34.67
2022-09-01T16:31:33.658Z,34.98
2022-09-01T16:34:36.906Z,36.63
2022-09-01T16:37:42.780Z,36.32
2022-09-01T16:40:54.451Z,37.68
2022-09-01T16:44:29.771Z,37.13
2022-09-01T16:47:52.677Z,39.48
2022-09-01T16:51:08.885Z,40.65
2022-09-01T16:54:27.166Z,42.08
2022-09-01T16:57:54.161Z,42.37
2022-09-01T17:01:17.246Z,43.09
2022-09-01T17:04:29.676Z,44.06
2022-09-01T17:07:40.607Z,43.58
2022-09-01T17:10:52.419Z,44.22
2022-09-01T17:13:55.881Z,44.22
2022-09-01T17:17:07.952Z,44.94
2022-09-01T17:20:13.052Z,45.51
2022-09-01T17:23:28.247Z,45.48
2022-09-01T17:26:31.948Z,45.96
2022-09-01T17:29:51.781Z,47.30
2022-09-01T17:33:17.603Z,47.68
2022-09-01T17:36:47.094Z,47.75
2022-09-01T17:39:57.263Z,48.17
2022-09-01T17:43:15.471Z,48.59
2022-09-01T17:46:34.519Z,49.15
2022-09-01T17:49:53.577Z,49.26
2022-09-01T17:53:19.870Z,49.80
2022-09-01T17:56:42.624Z,50.21
2022-09-01T17:59:49.091Z,51.09
2022-09-01T18:02:58.955Z,51.44
2022-09-01T18:06:09.413Z,52.14
2022-09-01T18:09:15.097Z,52.62
2022-09-01T18:12:24.414Z,53.22
2022-09-01T18:15:27.460Z,54.05
2022-09-01T18:18:35.826Z,54.17
2022-09-01T18:21:49.253Z,54.23
2022-09-01T18:24:52.316Z,54.06
2022-09-01T18:27:56.065Z,54.39
2022-09-01T18:31:15.425Z,54.35
2022-09-01T18:34:36.439Z,54.96
2022-09-01T18:38:08.736Z,55.76
2022-09-01T18:41:17.443Z,57.18
2022-09-01T18:44:27.856Z,58.12
2022-09-01T18:47:55.160Z,58.44
2022-09-01T18:51:00.875Z,59.30
2022-09-01T18:54:16.466Z,59.30
2022-09-01T18:57:21.366Z,59.51
2022-09-01T19:00:47.877Z,59.45
2022-09-01T19:04:09.463Z,58.75
2022-09-01T19:07:15.689Z,58.24
2022-09-01T19:10:24.613Z,58.77
2022-09-01T19:13:46.702Z,58.82
2022-09-01T19:17:09.095Z,59.05
2022-09-01T19:20:18.659Z,60.07
2022-09-01T19:23:25.415Z,60.11
2022-09-01T19:26:33.187Z,63.58
2022-09-01T19:29:53.118Z,63.96
2022-09-01T19:32:59.428Z,64.27
2022-09-01T19:36:05.901Z,63.14
2022-09-01T19:39:14.367Z,62.35
2022-09-01T19:42:36.144Z,61.35
2022-09-01T19:45:46.109Z,59.32
2022-09-01T19:48:51.274Z,60.92
2022-09-01T19:52:38.042Z,60.30
2022-09-01T19:55:46.449Z,60.86
2022-09-01T19:59:14.029Z,60.85
2022-09-01T20:03:09.764Z,60.86
2022-09-01T20:06:52.137Z,61.71
2022-09-01T20:10:13.766Z,61.78
2022-09-01T20:13:43.942Z,62.48
2022-09-01T20:16:51.602Z,61.38
2022-09-01T20:20:01.412Z,58.59
2022-09-01T20:23:10.302Z,55.43
2022-09-01T20:26:23.394Z,54.27
2022-09-01T20:29:47.043Z,53.70
2022-09-01T20:33:01.623Z,52.75
2022-09-01T20:36:20.178Z,52.66
2022-09-01T20:39:46.639Z,51.75
2022-09-01T20:43:22.840Z,51.36
2022-09-01T20:46:26.553Z,51.43
2022-09-01T20:49:30.798Z,52.16
2022-09-01T20:53:01.736Z,51.45
2022-09-01T20:56:26.147Z,52.24
2022-09-01T20:59:49.020Z,52.76
2022-09-01T21:03:13.636Z,53.22
2022-09-01T21:06:48.543Z,53.40
2022-09-01T21:09:58.505Z,54.24
2022-09-01T21:13:32.131Z,54.46
2022-09-01T21:16:56.451Z,54.60
2022-09-01T21:19:59.369Z,55.33
2022-09-01T21:23:01.985Z,55.79
2022-09-01T21:26:09.581Z,56.42
2022-09-01T21:29:23.516Z,57.38
2022-09-01T21:32:29.180Z,58.96
2022-09-01T21:35:31.720Z,60.78
2022-09-01T21:38:35.119Z,62.02
2022-09-01T21:41:37.677Z,61.96
2022-09-01T21:44:40.888Z,61.82
2022-09-01T21:47:46.237Z,61.69
2022-09-01T21:50:50.275Z,61.65
2022-09-01T21:53:52.892Z,61.56
2022-09-01T21:56:55.926Z,61.33
2022-09-01T21:59:58.591Z,61.64
2022-09-01T22:03:02.130Z,60.09
2022-09-01T22:06:05.788Z,61.28
2022-09-01T22:09:21.126Z,62.28
2022-09-01T22:12:24.581Z,62.27
2022-09-01T22:15:27.128Z,62.03
2022-09-01T22:18:30.098Z,61.98
2022-09-01T22:21:32.737Z,61.92
2022-09-01T22:24:36.220Z,61.86
2022-09-01T22:27:39.028Z,61.92
2022-09-01T22:30:47.742Z,63.21
2022-09-01T22:33:50.621Z,62.43
2022-09-01T22:36:53.547Z,61.61
2022-09-01T22:39:56.046Z,60.32
2022-09-01T22:42:58.850Z,60.73
2022-09-01T22:46:01.425Z,59.21
2022-09-01T22:49:04.552Z,57.78
2022-09-01T22:52:07.142Z,56.03
2022-09-01T22:55:11.423Z,56.33
2022-09-01T22:58:15.572Z,54.29
2022-09-01T23:01:21.197Z,54.22
2022-09-01T23:04:24.978Z,54.05
2022-09-01T23:07:28.495Z,52.96
2022-09-01T23:10:31.516Z,53.57
2022-09-01T23:13:35.605Z,52.80
2022-09-01T23:16:38.314Z,51.20
2022-09-01T23:19:41.502Z,52.17
2022-09-01T23:22:44.982Z,53.07
2022-09-01T23:25:52.881Z,53.85
2022-09-01T23:28:56.386Z,52.14
2022-09-01T23:31:59.394Z,53.22
2022-09-01T23:35:02.264Z,53.77
2022-09-01T23:38:05.082Z,53.32
2022-09-01T23:41:15.789Z,52.52
2022-09-01T23:44:18.875Z,51.83
2022-09-01T23:47:21.395Z,52.43
2022-09-01T23:50:24.315Z,52.28
2022-09-01T23:53:29.163Z,52.23
2022-09-01T23:56:32.622Z,51.60
2022-09-01T23:59:35.205Z,51.17
